createdAt,value
2022-09-15T00:02:29.201Z,3.58
2022-09-15T00:05:31.361Z,3.22
2022-09-15T00:08:33.845Z,3.47
2022-09-15T00:11:37.756Z,3.30
2022-09-15T00:14:39.937Z,3.00
2022-09-15T00:17:43.820Z,3.40
2022-09-15T00:20:46.777Z,3.00
2022-09-15T00:23:50.122Z,3.20
2022-09-15T00:26:52.297Z,3.10
2022-09-15T00:29:54.941Z,3.60
2022-09-15T00:32:57.102Z,3.13
2022-09-15T00:36:10.983Z,3.25
2022-09-15T00:39:13.202Z,3.55
2022-09-15T00:42:39.391Z,2.85
2022-09-15T00:45:41.613Z,2.65
2022-09-15T00:48:55.332Z,3.53
2022-09-15T00:52:08.800Z,2.65
2022-09-15T00:55:30.457Z,2.92
2022-09-15T00:58:38.751Z,3.03
2022-09-15T01:01:43.866Z,2.75
2022-09-15T01:04:46.397Z,2.70
2022-09-15T01:08:09.961Z,2.70
2022-09-15T01:11:12.451Z,3.17
2022-09-15T01:14:14.913Z,3.13
2022-09-15T01:17:49.749Z,3.42
2022-09-15T01:21:07.604Z,2.90
2022-09-15T01:24:32.345Z,2.72
2022-09-15T01:27:46.688Z,3.17
2022-09-15T01:31:03.244Z,2.83
2022-09-15T01:34:12.818Z,2.45
2022-09-15T01:37:21.196Z,3.22
2022-09-15T01:40:26.995Z,3.50
2022-09-15T01:43:30.739Z,3.20
2022-09-15T01:46:47.107Z,3.17
2022-09-15T01:49:53.963Z,2.90
2022-09-15T01:52:59.803Z,3.15
2022-09-15T01:56:11.059Z,3.00
2022-09-15T01:59:13.407Z,3.22
2022-09-15T02:02:36.925Z,3.17
2022-09-15T02:05:45.080Z,2.95
2022-09-15T02:08:54.815Z,2.70
2022-09-15T02:12:14.742Z,2.97
2022-09-15T02:18:32.911Z,2.65
2022-09-15T02:22:00.146Z,3.08
2022-09-15T02:25:24.132Z,3.28
2022-09-15T02:28:32.023Z,2.90
2022-09-15T02:31:39.053Z,3.08
2022-09-15T02:34:44.359Z,2.92
2022-09-15T02:37:47.085Z,3.53
2022-09-15T02:40:49.674Z,3.55
2022-09-15T02:43:52.368Z,3.00
2022-09-15T02:46:54.564Z,3.20
2022-09-15T02:49:57.262Z,3.00
2022-09-15T02:52:59.398Z,2.85
2022-09-15T02:56:01.725Z,2.97
2022-09-15T02:59:03.963Z,2.72
2022-09-15T03:02:06.289Z,2.80
2022-09-15T03:05:09.554Z,3.13
2022-09-15T03:08:12.036Z,2.85
2022-09-15T03:11:15.624Z,2.88
2022-09-15T03:14:18.030Z,2.58
2022-09-15T03:17:20.187Z,3.10
2022-09-15T03:20:28.316Z,3.20
2022-09-15T03:23:30.390Z,3.25
2022-09-15T03:26:32.474Z,3.05
2022-09-15T03:29:34.564Z,2.90
2022-09-15T03:32:37.137Z,3.58
2022-09-15T03:35:39.280Z,2.67
2022-09-15T03:38:41.481Z,2.75
2022-09-15T03:41:43.679Z,3.05
2022-09-15T03:44:45.937Z,3.05
2022-09-15T03:47:48.038Z,3.08
2022-09-15T03:50:51.400Z,3.22
2022-09-15T03:53:53.645Z,3.22
2022-09-15T03:56:55.847Z,3.15
2022-09-15T03:59:57.985Z,3.15
2022-09-15T04:03:00.136Z,2.58
2022-09-15T04:06:03.614Z,3.13
2022-09-15T04:09:06.336Z,3.03
2022-09-15T04:16:01.388Z,2.90
2022-09-15T04:19:03.833Z,2.75
2022-09-15T04:22:05.911Z,2.60
2022-09-15T04:25:09.383Z,2.80
2022-09-15T04:28:11.510Z,3.17
2022-09-15T04:31:15.872Z,2.75
2022-09-15T04:34:18.542Z,3.08
2022-09-15T04:37:20.647Z,2.92
2022-09-15T04:40:22.809Z,2.78
2022-09-15T04:43:26.475Z,2.60
2022-09-15T04:46:28.806Z,2.53
2022-09-15T04:49:31.839Z,3.08
2022-09-15T04:52:37.010Z,2.75
2022-09-15T04:59:23.313Z,2.78
2022-09-15T05:02:26.456Z,2.70
2022-09-15T05:09:01.146Z,2.78
2022-09-15T05:12:03.321Z,3.42
2022-09-15T05:15:06.703Z,2.55
2022-09-15T05:18:09.035Z,2.65
2022-09-15T05:21:13.540Z,2.70
2022-09-15T05:24:15.894Z,4.70
2022-09-15T05:27:18.973Z,4.25
2022-09-15T05:34:06.118Z,3.70
2022-09-15T05:37:09.589Z,4.30
2022-09-15T05:40:11.829Z,3.38
2022-09-15T05:43:14.438Z,4.30
2022-09-15T05:46:19.484Z,3.92
2022-09-15T05:49:21.911Z,3.88
2022-09-15T05:52:24.038Z,3.60
2022-09-15T05:55:26.582Z,3.83
2022-09-15T05:58:29.579Z,3.10
2022-09-15T06:01:31.884Z,3.08
2022-09-15T06:04:34.343Z,4.03
2022-09-15T06:07:36.540Z,3.03
2022-09-15T06:10:39.396Z,2.90
2022-09-15T06:13:42.091Z,3.25
2022-09-15T06:16:44.435Z,3.55
2022-09-15T06:19:46.775Z,3.33
2022-09-15T06:22:49.073Z,3.85
2022-09-15T06:25:51.245Z,3.63
2022-09-15T06:28:53.577Z,3.40
2022-09-15T06:31:57.222Z,3.10
2022-09-15T06:34:59.930Z,2.88
2022-09-15T06:38:02.094Z,2.80
2022-09-15T06:41:05.433Z,3.50
2022-09-15T06:44:09.126Z,3.25
2022-09-15T06:47:15.820Z,3.10
2022-09-15T06:50:18.155Z,3.60
2022-09-15T06:53:20.328Z,3.10
2022-09-15T06:56:23.669Z,2.97
2022-09-15T06:59:25.754Z,3.13
2022-09-15T07:02:27.923Z,2.95
2022-09-15T07:05:30.362Z,3.85
2022-09-15T07:08:32.794Z,2.78
2022-09-15T07:11:34.959Z,2.95
2022-09-15T07:14:37.515Z,2.60
2022-09-15T07:17:39.738Z,2.63
2022-09-15T07:20:42.048Z,3.67
2022-09-15T07:23:44.953Z,2.92
2022-09-15T07:26:49.041Z,3.60
2022-09-15T07:29:51.146Z,2.72
2022-09-15T07:32:53.207Z,3.30
2022-09-15T07:35:55.426Z,4.30
2022-09-15T07:38:58.146Z,3.22
2022-09-15T07:42:00.377Z,3.42
2022-09-15T07:45:02.565Z,2.67
2022-09-15T07:48:04.754Z,3.13
2022-09-15T07:51:06.929Z,3.10
2022-09-15T07:54:09.346Z,3.47
2022-09-15T07:57:11.597Z,3.50
2022-09-15T08:00:15.689Z,3.33
2022-09-15T08:03:18.056Z,3.53
2022-09-15T08:06:22.672Z,3.60
2022-09-15T08:09:24.858Z,3.30
2022-09-15T08:12:27.018Z,2.97
2022-09-15T08:15:29.485Z,3.58
2022-09-15T08:18:31.719Z,3.35
2022-09-15T08:21:33.923Z,3.10
2022-09-15T08:24:37.640Z,3.17
2022-09-15T08:27:40.131Z,3.33
2022-09-15T08:30:42.287Z,2.90
2022-09-15T08:33:49.914Z,3.40
2022-09-15T08:36:52.057Z,4.65
2022-09-15T08:39:54.219Z,4.68
2022-09-15T08:43:09.137Z,3.55
2022-09-15T08:50:02.416Z,2.97
2022-09-15T08:53:11.982Z,3.75
2022-09-15T08:56:20.766Z,3.35
2022-09-15T08:59:23.113Z,3.67
2022-09-15T09:02:58.297Z,3.42
2022-09-15T09:06:18.701Z,3.05
2022-09-15T09:09:42.110Z,3.20
2022-09-15T09:16:36.603Z,4.28
2022-09-15T09:19:53.871Z,4.20
2022-09-15T09:22:57.770Z,3.78
2022-09-15T09:26:02.260Z,4.03
2022-09-15T09:29:16.031Z,4.25
2022-09-15T09:32:25.247Z,3.47
2022-09-15T09:35:46.165Z,3.50
2022-09-15T09:38:49.393Z,3.55
2022-09-15T09:41:51.583Z,3.72
2022-09-15T09:44:54.137Z,3.88
2022-09-15T09:48:03.237Z,3.63
2022-09-15T09:55:03.998Z,3.42
2022-09-15T10:02:08.265Z,3.40
2022-09-15T10:05:10.704Z,3.33
2022-09-15T10:08:20.824Z,3.25
2022-09-15T10:11:38.708Z,3.70
2022-09-15T10:14:42.087Z,3.60
2022-09-15T10:25:23.740Z,4.07
2022-09-15T10:28:27.519Z,3.63
2022-09-15T10:35:18.922Z,3.40
2022-09-15T10:38:31.602Z,3.88
2022-09-15T10:45:27.282Z,3.20
2022-09-15T10:48:55.834Z,3.65
2022-09-15T10:52:21.796Z,3.05
2022-09-15T10:55:37.033Z,2.80
2022-09-15T10:59:09.076Z,3.20
2022-09-15T11:02:36.276Z,3.00
2022-09-15T11:06:13.494Z,3.00
2022-09-15T11:09:25.128Z,3.05
2022-09-15T11:12:53.326Z,2.80
2022-09-15T11:15:55.546Z,3.08
2022-09-15T11:19:26.093Z,2.50
2022-09-15T11:22:35.605Z,2.72
2022-09-15T11:25:44.577Z,2.58
2022-09-15T11:28:55.255Z,3.00
2022-09-15T11:32:19.298Z,2.53
2022-09-15T11:35:32.107Z,2.78
2022-09-15T11:38:48.347Z,3.10
2022-09-15T11:41:59.753Z,2.72
2022-09-15T11:45:03.499Z,2.67
2022-09-15T11:48:12.659Z,2.60
2022-09-15T11:51:20.127Z,2.40
2022-09-15T11:55:18.279Z,2.28
2022-09-15T11:58:30.142Z,2.85
2022-09-15T12:02:11.851Z,2.58
2022-09-15T12:05:24.033Z,2.17
2022-09-15T12:08:56.301Z,2.00
2022-09-15T12:12:07.584Z,2.10
2022-09-15T12:15:19.146Z,2.00
2022-09-15T12:18:39.297Z,2.00
2022-09-15T12:21:48.942Z,2.05
2022-09-15T12:25:01.580Z,2.00
2022-09-15T12:28:22.079Z,1.85
2022-09-15T12:31:29.373Z,1.90
2022-09-15T12:34:31.616Z,2.00
2022-09-15T12:37:38.090Z,2.33
2022-09-15T12:40:41.124Z,2.00
2022-09-15T12:44:00.080Z,2.00
2022-09-15T12:50:51.915Z,2.03
2022-09-15T12:54:01.011Z,1.90
2022-09-15T12:57:27.108Z,2.10
2022-09-15T13:00:42.501Z,2.38
2022-09-15T13:04:01.771Z,2.10
2022-09-15T13:07:16.162Z,1.90
2022-09-15T13:10:59.564Z,2.22
2022-09-15T13:14:04.379Z,2.30
2022-09-15T13:20:38.574Z,1.73
2022-09-15T13:23:43.269Z,2.33
2022-09-15T13:26:51.485Z,1.88
2022-09-15T13:30:15.756Z,1.95
2022-09-15T13:40:52.304Z,2.00
2022-09-15T13:44:23.558Z,1.98
2022-09-15T13:47:35.378Z,2.15
2022-09-15T13:50:41.482Z,2.25
2022-09-15T13:53:58.270Z,2.30
2022-09-15T13:57:02.165Z,1.90
2022-09-15T14:00:11.717Z,2.08
2022-09-15T14:03:25.813Z,2.30
2022-09-15T14:06:34.245Z,2.00
2022-09-15T14:09:47.684Z,2.35
2022-09-15T14:12:51.647Z,1.90
2022-09-15T14:16:09.106Z,2.15
2022-09-15T14:19:34.863Z,1.90
2022-09-15T14:22:40.943Z,1.92
2022-09-15T14:25:46.202Z,2.05
2022-09-15T14:28:56.063Z,2.20
2022-09-15T14:35:07.666Z,1.80
2022-09-15T14:38:21.893Z,1.90
2022-09-15T14:41:24.011Z,2.10
2022-09-15T14:47:48.478Z,1.90
2022-09-15T14:51:24.204Z,2.00
2022-09-15T14:54:34.338Z,2.10
2022-09-15T15:01:32.614Z,2.28
2022-09-15T15:04:51.097Z,2.00
2022-09-15T15:07:55.428Z,1.65
2022-09-15T15:10:59.192Z,1.73
2022-09-15T15:17:52.817Z,2.42
2022-09-15T15:20:54.919Z,1.70
2022-09-15T15:23:57.337Z,2.00
2022-09-15T15:27:34.675Z,1.35
2022-09-15T15:30:46.010Z,1.67
2022-09-15T15:33:57.301Z,1.73
2022-09-15T15:37:05.192Z,1.50
2022-09-15T15:40:17.430Z,2.28
2022-09-15T15:43:24.666Z,2.75
2022-09-15T15:46:50.051Z,2.33
2022-09-15T15:53:42.114Z,1.83
2022-09-15T15:56:44.559Z,2.55
2022-09-15T15:59:47.287Z,1.73
2022-09-15T16:02:51.134Z,1.88
2022-09-15T16:05:57.140Z,1.48
2022-09-15T16:09:00.234Z,1.40
2022-09-15T16:12:02.497Z,2.30
2022-09-15T16:15:12.450Z,2.00
2022-09-15T16:21:21.284Z,1.88
2022-09-15T16:24:24.887Z,1.17
2022-09-15T16:27:29.375Z,1.70
2022-09-15T16:30:32.492Z,1.90
2022-09-15T16:33:37.990Z,2.25
2022-09-15T16:36:40.411Z,2.22
2022-09-15T16:39:42.592Z,1.60
2022-09-15T16:42:45.212Z,1.45
2022-09-15T16:45:48.633Z,1.48
2022-09-15T16:48:51.043Z,1.38
2022-09-15T16:51:53.291Z,1.52
2022-09-15T16:54:56.217Z,1.55
2022-09-15T16:57:59.953Z,2.28
2022-09-15T17:01:02.377Z,1.60
2022-09-15T17:04:16.174Z,1.20
2022-09-15T17:07:18.742Z,1.10
2022-09-15T17:10:20.951Z,1.98
2022-09-15T17:13:27.758Z,1.83
2022-09-15T17:16:32.365Z,1.38
2022-09-15T17:19:34.533Z,1.40
2022-09-15T17:22:37.044Z,1.23
2022-09-15T17:25:42.695Z,1.33
2022-09-15T17:28:44.881Z,1.33
2022-09-15T17:31:47.038Z,1.40
2022-09-15T17:34:49.211Z,1.58
2022-09-15T17:37:52.458Z,1.20
2022-09-15T17:40:58.801Z,1.30
2022-09-15T17:44:01.053Z,1.42
2022-09-15T17:47:03.930Z,1.70
2022-09-15T17:50:06.576Z,1.13
2022-09-15T17:53:23.582Z,1.70
2022-09-15T17:56:25.705Z,1.38
2022-09-15T17:59:27.819Z,1.08
2022-09-15T18:02:30.212Z,1.60
2022-09-15T18:05:35.565Z,0.80
2022-09-15T18:08:37.826Z,1.13
2022-09-15T18:11:39.987Z,1.40
2022-09-15T18:14:42.345Z,1.08
2022-09-15T18:17:44.850Z,1.30
2022-09-15T18:20:48.189Z,1.40
2022-09-15T18:23:50.363Z,1.05
2022-09-15T18:26:54.143Z,1.52
2022-09-15T18:29:56.356Z,1.27
2022-09-15T18:32:59.436Z,1.10
2022-09-15T18:36:01.927Z,1.92
2022-09-15T18:39:05.310Z,1.20
2022-09-15T18:42:07.548Z,1.05
2022-09-15T18:45:12.211Z,1.00
2022-09-15T18:48:14.398Z,0.80
2022-09-15T18:51:23.955Z,0.90
2022-09-15T18:54:34.798Z,1.20
2022-09-15T18:57:38.783Z,1.25
2022-09-15T19:00:40.902Z,1.00
2022-09-15T19:03:44.310Z,1.27
2022-09-15T19:06:46.510Z,0.77
2022-09-15T19:09:56.252Z,1.38
2022-09-15T19:12:58.730Z,0.90
2022-09-15T19:16:08.871Z,1.05
2022-09-15T19:19:12.234Z,1.05
2022-09-15T19:22:14.895Z,1.08
2022-09-15T19:25:17.104Z,0.82
2022-09-15T19:28:19.608Z,1.08
2022-09-15T19:31:22.102Z,1.00
2022-09-15T19:34:24.687Z,1.30
2022-09-15T19:37:27.520Z,1.20
2022-09-15T19:40:29.891Z,1.20
2022-09-15T19:43:32.492Z,1.35
2022-09-15T19:46:34.716Z,1.05
2022-09-15T19:49:37.492Z,0.90
2022-09-15T19:52:40.104Z,0.95
2022-09-15T19:55:42.215Z,1.10
2022-09-15T19:58:45.701Z,1.15
2022-09-15T20:01:47.906Z,1.33
2022-09-15T20:04:50.512Z,1.30
2022-09-15T20:07:53.415Z,1.10
2022-09-15T20:10:55.549Z,1.30
2022-09-15T20:13:58.892Z,1.30
2022-09-15T20:17:01.815Z,1.05
2022-09-15T20:20:04.391Z,0.95
2022-09-15T20:23:06.511Z,1.30
2022-09-15T20:26:10.905Z,1.35
2022-09-15T20:29:13.341Z,1.75
2022-09-15T20:32:15.581Z,1.40
2022-09-15T20:35:17.708Z,1.50
2022-09-15T20:38:20.794Z,1.40
2022-09-15T20:41:25.108Z,1.30
2022-09-15T20:44:27.266Z,1.13
2022-09-15T20:47:29.383Z,1.38
2022-09-15T20:50:31.884Z,1.40
2022-09-15T20:53:35.456Z,1.42
2022-09-15T20:56:38.439Z,1.30
2022-09-15T20:59:40.872Z,1.25
2022-09-15T21:02:43.231Z,1.60
2022-09-15T21:05:45.994Z,1.40
2022-09-15T21:08:49.801Z,1.30
2022-09-15T21:11:53.638Z,1.35
2022-09-15T21:14:57.976Z,1.25
2022-09-15T21:18:00.685Z,1.60
2022-09-15T21:21:09.056Z,1.42
2022-09-15T21:24:11.192Z,1.65
2022-09-15T21:27:29.720Z,1.35
2022-09-15T21:30:31.828Z,1.70
2022-09-15T21:33:34.817Z,1.60
2022-09-15T21:36:37.640Z,1.40
2022-09-15T21:39:39.779Z,1.98
2022-09-15T21:42:42.019Z,1.58
2022-09-15T21:45:44.249Z,1.30
2022-09-15T21:48:48.143Z,1.92
2022-09-15T21:51:50.372Z,1.60
2022-09-15T21:54:52.811Z,1.35
2022-09-15T21:57:55.850Z,2.00
2022-09-15T22:00:58.389Z,1.50
2022-09-15T22:04:06.997Z,1.90
2022-09-15T22:07:09.884Z,1.88
2022-09-15T22:10:12.137Z,1.80
2022-09-15T22:13:14.276Z,1.67
2022-09-15T22:16:23.535Z,1.80
2022-09-15T22:19:25.828Z,1.80
2022-09-15T22:22:30.562Z,1.80
2022-09-15T22:25:33.430Z,1.83
2022-09-15T22:28:36.039Z,2.08
2022-09-15T22:31:38.605Z,1.80
2022-09-15T22:34:40.836Z,2.00
2022-09-15T22:37:43.034Z,1.88
2022-09-15T22:40:45.561Z,1.60
2022-09-15T22:43:50.010Z,2.00
2022-09-15T22:46:56.541Z,1.95
2022-09-15T22:49:58.674Z,2.30
2022-09-15T22:53:00.935Z,2.00
2022-09-15T22:56:12.238Z,2.08
2022-09-15T23:03:16.316Z,1.73
2022-09-15T23:06:18.938Z,1.73
2022-09-15T23:09:31.442Z,1.98
2022-09-15T23:12:53.215Z,1.77
2022-09-15T23:15:55.436Z,1.90
2022-09-15T23:18:58.501Z,2.00
2022-09-15T23:22:00.727Z,1.50
2022-09-15T23:25:03.029Z,1.80
2022-09-15T23:28:05.196Z,1.75
2022-09-15T23:31:08.037Z,1.92
2022-09-15T23:34:10.311Z,1.85
2022-09-15T23:37:12.567Z,1.90
2022-09-15T23:40:14.884Z,2.20
2022-09-15T23:43:17.795Z,1.85
2022-09-15T23:46:20.080Z,2.10
2022-09-15T23:49:22.266Z,2.20
2022-09-15T23:52:24.474Z,1.90
2022-09-15T23:55:27.098Z,1.90
2022-09-15T23:58:29.246Z,2.58
